Time;durP1;ratioP1;P1;durP2;ratioP2;P2;SDS_P1;SDS_P2;PMS_P1;PMS_P2;Temp;Humidity;BMP_temperature;BMP_pressure;BME280_temperature;BME280_humidity;BME280_pressure;Samples;Min_cycle;Max_cycle;Signal;HPM_P1;HPM_P2
2022/09/06 00:00:10;;;;;;;0.10;0.10;;;16.50;99.90;;;;;;5063059;28;20454;-86
2022/09/06 00:02:36;;;;;;;0.10;0.10;;;16.40;99.90;;;;;;5064118;28;20859;-84
2022/09/06 00:05:03;;;;;;;0.10;0.10;;;16.40;99.90;;;;;;5068709;28;20443;-85
2022/09/06 00:07:28;;;;;;;0.10;0.10;;;16.50;99.90;;;;;;5064287;28;20448;-85
2022/09/06 00:09:55;;;;;;;0.10;0.10;;;16.40;99.90;;;;;;5067986;28;20440;-85
2022/09/06 00:12:20;;;;;;;0.10;0.10;;;16.40;99.90;;;;;;5067350;28;20186;-85
2022/09/06 00:14:46;;;;;;;0.10;0.10;;;16.30;99.90;;;;;;5065582;28;20477;-85
2022/09/06 00:17:11;;;;;;;0.10;0.10;;;16.30;99.90;;;;;;5067110;28;20212;-85
2022/09/06 00:19:37;;;;;;;0.10;0.10;;;16.40;99.90;;;;;;5066830;28;20190;-87
2022/09/06 00:22:03;;;;;;;0.10;0.10;;;16.30;99.90;;;;;;5067134;28;20190;-87
2022/09/06 00:24:28;;;;;;;0.10;0.10;;;16.30;99.90;;;;;;5065748;28;20247;-83
2022/09/06 00:26:54;;;;;;;0.10;0.10;;;16.20;99.90;;;;;;5068547;28;20186;-88
2022/09/06 00:29:19;;;;;;;0.10;0.10;;;16.20;99.90;;;;;;5067047;28;20784;-85
2022/09/06 00:31:45;;;;;;;0.10;0.10;;;16.20;99.90;;;;;;5068125;28;20193;-84
2022/09/06 00:34:10;;;;;;;0.10;0.10;;;16.20;99.90;;;;;;5065571;28;20217;-87
2022/09/06 00:36:36;;;;;;;0.10;0.10;;;16.20;99.90;;;;;;5063023;28;20182;-86
2022/09/06 00:39:01;;;;;;;0.10;0.10;;;16.20;99.90;;;;;;5061622;28;20563;-85
2022/09/06 00:41:27;;;;;;;0.10;0.10;;;16.20;99.90;;;;;;5058025;28;20193;-86
2022/09/06 00:43:53;;;;;;;0.10;0.10;;;16.20;99.90;;;;;;5067262;28;20646;-86
2022/09/06 00:46:26;;;;;;;0.10;0.10;;;16.20;99.90;;;;;;5063432;28;20649;-84
2022/09/06 00:48:57;;;;;;;0.10;0.10;;;16.10;99.90;;;;;;5066568;28;20517;-85
2022/09/06 00:51:25;;;;;;;0.10;0.10;;;16.10;99.90;;;;;;5065789;28;20436;-82
2022/09/06 00:53:51;;;;;;;0.10;0.10;;;16.10;99.90;;;;;;5066780;28;20565;-84
2022/09/06 00:56:17;;;;;;;0.10;0.10;;;16.20;99.90;;;;;;5065506;28;20476;-84
2022/09/06 00:58:43;;;;;;;0.10;0.10;;;16.10;99.90;;;;;;5065347;28;20531;-83
2022/09/06 01:01:08;;;;;;;0.10;0.10;;;16.20;99.90;;;;;;5064423;28;20197;-84
2022/09/06 01:03:35;;;;;;;0.10;0.10;;;16.10;99.90;;;;;;5062282;28;20228;-84
2022/09/06 01:06:19;;;;;;;0.10;0.10;;;16.10;99.90;;;;;;5064528;28;20781;-83
2022/09/06 01:08:53;;;;;;;0.10;0.10;;;16.10;99.90;;;;;;5064824;28;20447;-83
2022/09/06 01:11:47;;;;;;;0.10;0.10;;;16.10;99.90;;;;;;5066560;28;20436;-90
2022/09/06 01:14:32;;;;;;;0.10;0.10;;;16.10;99.90;;;;;;5067155;28;20482;-84
2022/09/06 01:17:25;;;;;;;0.10;0.10;;;16.10;99.90;;;;;;5065779;28;20509;-85
2022/09/06 01:20:08;;;;;;;0.10;0.10;;;16.00;99.90;;;;;;5067039;28;20949;-87
2022/09/06 01:22:46;;;;;;;0.10;0.10;;;16.10;99.90;;;;;;5064644;28;20486;-86
2022/09/06 01:25:24;;;;;;;0.10;0.10;;;16.00;99.90;;;;;;5062601;28;20454;-87
2022/09/06 01:28:09;;;;;;;0.10;0.10;;;16.10;99.90;;;;;;5067645;28;20432;-85
2022/09/06 01:30:38;;;;;;;0.10;0.10;;;16.00;99.90;;;;;;5080985;28;20458;-85
2022/09/06 01:33:18;;;;;;;0.10;0.10;;;16.00;99.90;;;;;;5067025;28;20444;-86
2022/09/06 01:35:50;;;;;;;0.10;0.10;;;16.00;99.90;;;;;;5066445;28;20448;-86
2022/09/06 01:38:16;;;;;;;0.10;0.10;;;16.00;99.90;;;;;;5066325;28;20439;-83
2022/09/06 01:40:42;;;;;;;0.10;0.10;;;16.00;99.90;;;;;;5066317;28;20440;-85
2022/09/06 01:43:11;;;;;;;0.10;0.10;;;16.00;99.90;;;;;;5065114;28;20582;-84
2022/09/06 01:45:49;;;;;;;0.10;0.10;;;16.00;99.90;;;;;;5065592;28;20540;-83
2022/09/06 01:48:23;;;;;;;0.10;0.10;;;16.00;99.90;;;;;;5059827;28;20997;-85
2022/09/06 01:50:55;;;;;;;0.10;0.10;;;16.00;99.90;;;;;;5066132;28;20773;-84
2022/09/06 01:53:31;;;;;;;0.10;0.10;;;16.00;99.90;;;;;;5058038;28;20440;-85
2022/09/06 01:56:03;;;;;;;0.10;0.10;;;16.00;99.90;;;;;;5070910;28;20444;-85
2022/09/06 01:58:38;;;;;;;0.10;0.10;;;16.00;99.90;;;;;;5069163;28;20519;-86
2022/09/06 02:01:34;;;;;;;0.10;0.10;;;16.10;99.90;;;;;;5063379;28;20444;-86
2022/09/06 02:04:21;;;;;;;0.10;0.10;;;16.00;99.90;;;;;;5069895;28;20432;-86
2022/09/06 02:06:53;;;;;;;0.10;0.10;;;16.10;99.90;;;;;;5060359;28;20429;-86
2022/09/06 02:09:22;;;;;;;0.10;0.10;;;16.10;99.90;;;;;;5070264;28;20440;-84
2022/09/06 02:11:56;;;;;;;0.10;0.10;;;16.10;99.90;;;;;;5067750;28;20428;-88
2022/09/06 02:14:34;;;;;;;0.10;0.10;;;16.20;99.90;;;;;;5066479;28;20516;-87
2022/09/06 02:17:01;;;;;;;0.10;0.10;;;16.10;99.90;;;;;;5070993;28;20458;-88
2022/09/06 02:19:38;;;;;;;0.10;0.10;;;16.10;99.90;;;;;;5070143;28;20428;-85
2022/09/06 02:22:08;;;;;;;0.10;0.10;;;16.10;99.90;;;;;;5066054;28;20448;-86
2022/09/06 02:24:36;;;;;;;0.10;0.10;;;16.20;99.90;;;;;;5069665;28;20454;-86
2022/09/06 02:27:02;;;;;;;0.10;0.10;;;16.20;99.90;;;;;;5069979;28;21082;-88
2022/09/06 02:29:28;;;;;;;0.10;0.10;;;16.20;99.90;;;;;;5066069;28;20877;-88
2022/09/06 02:32:12;;;;;;;0.10;0.10;;;16.20;99.90;;;;;;5069798;28;20454;-84
2022/09/06 02:34:39;;;;;;;0.10;0.10;;;16.20;99.90;;;;;;5058800;28;20263;-86
2022/09/06 02:37:06;;;;;;;0.10;0.10;;;16.20;99.90;;;;;;5067901;28;20487;-87
2022/09/06 02:39:31;;;;;;;0.10;0.10;;;16.20;99.90;;;;;;5065195;28;20523;-87
2022/09/06 02:41:58;;;;;;;0.10;0.10;;;16.10;99.90;;;;;;5070924;28;20511;-85
2022/09/06 02:44:24;;;;;;;0.10;0.10;;;16.20;99.90;;;;;;5070250;28;20699;-87
2022/09/06 02:46:49;;;;;;;0.10;0.10;;;16.20;99.90;;;;;;5060331;28;20453;-88
2022/09/06 02:49:15;;;;;;;0.10;0.10;;;16.20;99.90;;;;;;5065802;28;20303;-85
2022/09/06 02:51:40;;;;;;;0.10;0.10;;;16.20;99.90;;;;;;5069356;28;20281;-87
2022/09/06 02:54:06;;;;;;;0.10;0.10;;;16.20;99.90;;;;;;5070152;28;20221;-85
2022/09/06 02:56:33;;;;;;;0.10;0.10;;;16.20;99.90;;;;;;5070256;28;20508;-88
2022/09/06 02:58:59;;;;;;;0.10;0.10;;;16.20;99.90;;;;;;5069356;28;20502;-88
2022/09/06 03:01:25;;;;;;;0.10;0.10;;;16.20;99.90;;;;;;5066313;28;20524;-87
2022/09/06 03:03:51;;;;;;;0.10;0.10;;;16.20;99.90;;;;;;5068198;28;20452;-87
2022/09/06 03:06:16;;;;;;;0.10;0.10;;;16.20;99.90;;;;;;5064636;28;20444;-84
2022/09/06 03:08:42;;;;;;;0.10;0.10;;;16.30;99.90;;;;;;5069731;28;20229;-87
2022/09/06 03:11:07;;;;;;;0.10;0.10;;;16.20;99.90;;;;;;5070089;28;20212;-85
2022/09/06 03:13:33;;;;;;;0.10;0.10;;;16.30;99.90;;;;;;5068222;28;20211;-86
2022/09/06 03:15:59;;;;;;;0.10;0.10;;;16.20;99.90;;;;;;5067828;28;20204;-83
2022/09/06 03:18:27;;;;;;;0.10;0.10;;;16.20;99.90;;;;;;5066911;28;20192;-84
2022/09/06 03:20:53;;;;;;;0.10;0.10;;;16.20;99.90;;;;;;5056017;28;20433;-88
2022/09/06 03:23:20;;;;;;;0.10;0.10;;;16.30;99.90;;;;;;5058307;28;20527;-86
2022/09/06 03:25:46;;;;;;;0.10;0.10;;;16.20;99.90;;;;;;5068569;28;22551;-88
2022/09/06 03:28:12;;;;;;;0.10;0.10;;;16.20;99.90;;;;;;5063852;28;20554;-84
2022/09/06 03:30:38;;;;;;;0.10;0.10;;;16.20;99.90;;;;;;5059975;28;20519;-86
2022/09/06 03:33:04;;;;;;;0.10;0.10;;;16.20;99.90;;;;;;5067777;28;20221;-85
2022/09/06 03:35:29;;;;;;;0.10;0.10;;;16.10;99.90;;;;;;5066609;28;20577;-82
2022/09/06 03:37:55;;;;;;;0.10;0.10;;;16.10;99.90;;;;;;5067718;28;20196;-87
2022/09/06 03:40:20;;;;;;;0.10;0.10;;;16.20;99.90;;;;;;5069923;28;20280;-86
2022/09/06 03:42:46;;;;;;;0.10;0.10;;;16.20;99.90;;;;;;5067570;28;20638;-86
2022/09/06 03:45:11;;;;;;;0.10;0.10;;;16.20;99.90;;;;;;5065188;28;20598;-86
2022/09/06 03:47:37;;;;;;;0.10;0.10;;;16.20;99.90;;;;;;5069642;28;20646;-85
2022/09/06 03:50:04;;;;;;;0.10;0.10;;;16.20;99.90;;;;;;5064059;28;20183;-86
2022/09/06 03:52:29;;;;;;;0.10;0.10;;;16.20;99.90;;;;;;5069748;28;20166;-84
2022/09/06 03:54:55;;;;;;;0.10;0.10;;;16.20;99.90;;;;;;5067445;28;20490;-87
2022/09/06 03:57:21;;;;;;;0.10;0.10;;;16.10;99.90;;;;;;5066723;28;20196;-88
2022/09/06 03:59:46;;;;;;;0.10;0.10;;;16.20;99.90;;;;;;5063348;28;20444;-85
2022/09/06 04:02:12;;;;;;;0.10;0.10;;;16.10;99.90;;;;;;5064378;28;20268;-86
2022/09/06 04:04:37;;;;;;;0.10;0.10;;;16.20;99.90;;;;;;5066971;28;20544;-84
2022/09/06 04:07:02;;;;;;;0.10;0.10;;;16.20;99.90;;;;;;5057394;28;20189;-84
2022/09/06 04:09:28;;;;;;;0.10;0.10;;;16.10;99.90;;;;;;5067793;28;20189;-84
2022/09/06 04:11:53;;;;;;;0.10;0.10;;;16.10;99.90;;;;;;5068104;28;20217;-88
2022/09/06 04:14:19;;;;;;;0.10;0.10;;;16.10;99.90;;;;;;5068816;28;20764;-83
2022/09/06 04:16:44;;;;;;;0.10;0.10;;;16.10;99.90;;;;;;5064199;28;20186;-88
2022/09/06 04:19:10;;;;;;;0.10;0.10;;;16.10;99.90;;;;;;5065420;28;20243;-81
2022/09/06 04:21:35;;;;;;;0.10;0.10;;;16.10;99.90;;;;;;5052179;28;20630;-88
2022/09/06 04:24:01;;;;;;;0.10;0.10;;;16.00;99.90;;;;;;5066630;28;20212;-86
2022/09/06 04:26:27;;;;;;;0.10;0.10;;;16.00;99.90;;;;;;5064707;28;20266;-86
2022/09/06 04:28:52;;;;;;;0.10;0.10;;;16.00;99.90;;;;;;5067634;28;20717;-85
2022/09/06 04:31:18;;;;;;;0.10;0.10;;;15.90;99.90;;;;;;5063080;28;20198;-85
2022/09/06 04:33:43;;;;;;;0.10;0.10;;;15.90;99.90;;;;;;5069203;28;20221;-86
2022/09/06 04:36:10;;;;;;;0.10;0.10;;;15.90;99.90;;;;;;5066310;28;20204;-86
2022/09/06 04:38:41;;;;;;;0.10;0.10;;;15.90;99.90;;;;;;5067068;28;20729;-87
2022/09/06 04:41:08;;;;;;;0.10;0.10;;;15.90;99.90;;;;;;5067465;28;20448;-86
2022/09/06 04:43:34;;;;;;;0.10;0.10;;;15.90;99.90;;;;;;5060038;28;20436;-86
2022/09/06 04:46:13;;;;;;;0.10;0.10;;;15.90;99.90;;;;;;5069880;28;20507;-88
2022/09/06 04:48:39;;;;;;;0.10;0.10;;;15.90;99.90;;;;;;5058892;28;20197;-87
2022/09/06 04:51:05;;;;;;;0.10;0.10;;;16.00;99.90;;;;;;5066378;28;20532;-83
2022/09/06 04:53:30;;;;;;;0.10;0.10;;;15.90;99.90;;;;;;5066760;28;20212;-85
2022/09/06 04:55:57;;;;;;;0.10;0.10;;;16.00;99.90;;;;;;5066432;28;20924;-84
2022/09/06 04:58:22;;;;;;;0.10;0.10;;;16.00;99.90;;;;;;5067366;28;20650;-84
2022/09/06 05:00:48;;;;;;;0.10;0.10;;;16.00;99.90;;;;;;5065564;28;20509;-86
2022/09/06 05:03:13;;;;;;;0.10;0.10;;;16.00;99.90;;;;;;5061829;28;20288;-82
2022/09/06 05:05:39;;;;;;;0.10;0.10;;;16.00;99.90;;;;;;5063574;28;20281;-85
2022/09/06 05:08:04;;;;;;;0.10;0.10;;;16.00;99.90;;;;;;5066583;28;20244;-85
2022/09/06 05:10:30;;;;;;;0.10;0.10;;;16.10;99.90;;;;;;5064838;28;20217;-84
2022/09/06 05:12:55;;;;;;;0.10;0.10;;;16.00;99.90;;;;;;5066227;28;20198;-83
2022/09/06 05:15:22;;;;;;;0.10;0.10;;;16.00;99.90;;;;;;5060631;28;20254;-82
2022/09/06 05:17:47;;;;;;;0.10;0.10;;;16.00;99.90;;;;;;5062610;28;20626;-86
2022/09/06 05:20:13;;;;;;;0.10;0.10;;;16.00;99.90;;;;;;5065875;28;20477;-82
2022/09/06 05:22:39;;;;;;;0.10;0.10;;;16.00;99.90;;;;;;5064619;28;20198;-83
2022/09/06 05:25:05;;;;;;;0.10;0.10;;;16.00;99.90;;;;;;5072992;28;20469;-86
2022/09/06 05:27:31;;;;;;;0.10;0.10;;;16.00;99.90;;;;;;5068969;28;20936;-85
2022/09/06 05:29:56;;;;;;;0.10;0.10;;;16.00;99.90;;;;;;5065391;28;20478;-89
2022/09/06 05:32:22;;;;;;;0.10;0.10;;;15.90;99.90;;;;;;5064886;28;20186;-85
2022/09/06 05:34:47;;;;;;;0.10;0.10;;;16.00;99.90;;;;;;5071724;28;20347;-85
2022/09/06 05:37:13;;;;;;;0.10;0.10;;;16.00;99.90;;;;;;5068700;28;20198;-84
2022/09/06 05:39:38;;;;;;;0.10;0.10;;;16.00;99.90;;;;;;5073135;28;20186;-88
2022/09/06 05:42:06;;;;;;;0.10;0.10;;;16.00;99.90;;;;;;5071548;28;20723;-86
2022/09/06 05:44:36;;;;;;;0.10;0.10;;;16.10;99.90;;;;;;5071030;28;20256;-85
2022/09/06 05:47:02;;;;;;;0.10;0.10;;;16.00;99.90;;;;;;5068432;28;21031;-85
2022/09/06 05:49:29;;;;;;;0.10;0.10;;;16.00;99.90;;;;;;5066332;28;20540;-85
2022/09/06 05:51:55;;;;;;;0.10;0.10;;;16.00;99.90;;;;;;5063032;28;20439;-85
2022/09/06 05:54:20;;;;;;;0.10;0.10;;;16.00;99.90;;;;;;5071447;28;20480;-84
2022/09/06 05:56:46;;;;;;;0.10;0.10;;;16.00;99.90;;;;;;5067140;28;20198;-86
2022/09/06 05:59:11;;;;;;;0.10;0.10;;;16.00;99.90;;;;;;5071144;28;20186;-88
2022/09/06 06:01:52;;;;;;;0.10;0.10;;;16.10;99.90;;;;;;5067081;28;20193;-89
2022/09/06 06:04:19;;;;;;;0.10;0.10;;;16.10;99.90;;;;;;5066895;28;20204;-89
2022/09/06 06:06:45;;;;;;;0.10;0.10;;;16.10;99.90;;;;;;5064470;28;20804;-88
2022/09/06 06:09:11;;;;;;;0.10;0.10;;;16.00;99.90;;;;;;5055628;28;20429;-87
2022/09/06 06:11:37;;;;;;;0.10;0.10;;;16.10;99.90;;;;;;5071695;28;20455;-87
2022/09/06 06:14:03;;;;;;;0.10;0.10;;;16.10;99.90;;;;;;5070242;28;20483;-83
2022/09/06 06:16:29;;;;;;;0.10;0.10;;;16.10;99.90;;;;;;5068989;28;20210;-84
2022/09/06 06:18:55;;;;;;;0.10;0.10;;;16.10;99.90;;;;;;5071388;28;20444;-87
2022/09/06 06:21:22;;;;;;;0.10;0.10;;;16.10;99.90;;;;;;5065698;28;20645;-88
2022/09/06 06:23:50;;;;;;;0.10;0.10;;;16.10;99.90;;;;;;5070583;28;20436;-88
2022/09/06 06:26:16;;;;;;;0.10;0.10;;;16.20;99.90;;;;;;5065894;28;20443;-88
2022/09/06 06:28:41;;;;;;;0.10;0.10;;;16.20;99.90;;;;;;5063218;28;20482;-88
2022/09/06 06:31:09;;;;;;;0.10;0.10;;;16.40;99.90;;;;;;5069880;28;20186;-85
2022/09/06 06:33:35;;;;;;;0.10;0.10;;;16.30;99.90;;;;;;5064026;28;20218;-88
2022/09/06 06:36:05;;;;;;;0.10;0.10;;;16.40;99.90;;;;;;5060549;28;20455;-86
2022/09/06 06:38:36;;;;;;;0.10;0.10;;;16.40;99.90;;;;;;5066950;28;20440;-89
2022/09/06 06:41:03;;;;;;;0.10;0.10;;;16.40;99.90;;;;;;5065522;28;20530;-87
2022/09/06 06:43:34;;;;;;;0.10;0.10;;;16.50;99.90;;;;;;5064476;28;20448;-86
2022/09/06 06:46:11;;;;;;;0.10;0.10;;;16.50;99.90;;;;;;5069557;28;20452;-89
2022/09/06 06:48:39;;;;;;;0.10;0.10;;;16.60;99.90;;;;;;5071009;28;20863;-87
2022/09/06 06:51:05;;;;;;;0.10;0.10;;;16.50;99.90;;;;;;5065505;28;20781;-83
2022/09/06 06:53:31;;;;;;;0.10;0.10;;;16.50;99.90;;;;;;5067539;28;20482;-87
2022/09/06 06:55:57;;;;;;;0.10;0.10;;;16.50;99.90;;;;;;5053705;28;20190;-87
2022/09/06 06:58:23;;;;;;;0.10;0.10;;;16.60;99.90;;;;;;5063524;28;20450;-86
2022/09/06 07:00:48;;;;;;;0.10;0.10;;;16.70;99.90;;;;;;5067660;28;20464;-85
2022/09/06 07:03:13;;;;;;;0.10;0.10;;;16.70;99.90;;;;;;5064667;28;20227;-88
2022/09/06 07:05:42;;;;;;;0.10;0.10;;;16.80;99.90;;;;;;5062749;28;20199;-84
2022/09/06 07:08:10;;;;;;;0.10;0.10;;;17.00;99.90;;;;;;5051676;28;20261;-85
2022/09/06 07:10:36;;;;;;;0.10;0.10;;;17.10;99.90;;;;;;5050448;28;20449;-87
2022/09/06 07:13:02;;;;;;;0.10;0.10;;;17.00;99.90;;;;;;5051520;28;20496;-85
2022/09/06 07:15:27;;;;;;;0.10;0.10;;;17.20;99.90;;;;;;5066637;28;20587;-83
2022/09/06 07:17:56;;;;;;;0.10;0.10;;;17.20;99.90;;;;;;5065103;28;20451;-85
2022/09/06 07:20:23;;;;;;;0.10;0.10;;;17.20;99.90;;;;;;5068836;28;20221;-89
2022/09/06 07:23:01;;;;;;;0.10;0.10;;;17.10;99.90;;;;;;5068949;28;20439;-89
2022/09/06 07:25:27;;;;;;;0.10;0.10;;;17.30;99.90;;;;;;5066598;28;20443;-88
2022/09/06 07:28:02;;;;;;;0.10;0.10;;;17.30;99.90;;;;;;5067632;28;20444;-87
2022/09/06 07:30:29;;;;;;;0.10;0.10;;;17.30;99.90;;;;;;5070388;28;20231;-86
2022/09/06 07:32:57;;;;;;;0.10;0.10;;;17.30;99.90;;;;;;5051647;28;20445;-87
2022/09/06 07:35:23;;;;;;;0.10;0.10;;;17.30;99.90;;;;;;5053975;28;20488;-84
2022/09/06 07:38:00;;;;;;;0.10;0.10;;;17.40;99.90;;;;;;5068969;28;20903;-83
2022/09/06 07:40:28;;;;;;;0.10;0.10;;;17.30;99.90;;;;;;5069110;28;20513;-86
2022/09/06 07:42:58;;;;;;;0.10;0.10;;;17.30;99.90;;;;;;5052604;28;20440;-84
2022/09/06 07:45:24;;;;;;;0.10;0.10;;;17.40;99.90;;;;;;5069039;28;20464;-85
2022/09/06 07:47:58;;;;;;;0.10;0.10;;;17.60;99.90;;;;;;5070079;28;20474;-84
2022/09/06 07:50:24;;;;;;;0.10;0.10;;;17.60;99.90;;;;;;5058753;28;20192;-83
2022/09/06 07:52:50;;;;;;;0.10;0.10;;;17.70;99.90;;;;;;5066649;28;20447;-86
2022/09/06 07:55:15;;;;;;;0.10;0.10;;;17.70;99.90;;;;;;5065470;28;20476;-86
2022/09/06 07:57:41;;;;;;;0.10;0.10;;;17.90;99.90;;;;;;5064113;28;20227;-85
2022/09/06 08:00:08;;;;;;;0.10;0.10;;;17.80;99.90;;;;;;5066590;28;20190;-86
2022/09/06 08:02:34;;;;;;;0.10;0.10;;;17.80;99.90;;;;;;5062416;28;20608;-89
2022/09/06 08:04:59;;;;;;;0.10;0.10;;;17.90;99.90;;;;;;5068049;28;20563;-86
2022/09/06 08:07:25;;;;;;;0.10;0.10;;;18.00;99.90;;;;;;5064384;28;20182;-86
2022/09/06 08:09:50;;;;;;;0.10;0.10;;;17.80;99.90;;;;;;5064803;28;20190;-84
2022/09/06 08:12:17;;;;;;;0.10;0.10;;;17.90;99.90;;;;;;5068902;28;20273;-89
2022/09/06 08:14:43;;;;;;;0.10;0.10;;;17.90;99.90;;;;;;5068504;28;20256;-86
2022/09/06 08:17:08;;;;;;;0.10;0.10;;;18.00;99.90;;;;;;5065823;28;20460;-85
2022/09/06 08:19:35;;;;;;;0.10;0.10;;;18.30;99.90;;;;;;5065634;28;20224;-86
2022/09/06 08:22:01;;;;;;;0.10;0.10;;;18.30;99.90;;;;;;5062744;28;20518;-86
2022/09/06 08:24:27;;;;;;;0.10;0.10;;;18.30;99.90;;;;;;5068617;28;20625;-87
2022/09/06 08:26:52;;;;;;;0.10;0.10;;;18.30;99.90;;;;;;5067116;28;20221;-85
2022/09/06 08:29:21;;;;;;;0.10;0.00;;;18.60;99.90;;;;;;5064922;28;20731;-84
2022/09/06 08:31:46;;;;;;;0.10;0.10;;;18.90;99.90;;;;;;5068537;28;20188;-84
2022/09/06 08:34:13;;;;;;;0.10;0.10;;;18.80;99.90;;;;;;5067293;28;20558;-87
2022/09/06 08:36:40;;;;;;;0.10;0.10;;;18.70;99.90;;;;;;5061881;28;20297;-84
2022/09/06 08:39:08;;;;;;;0.10;0.10;;;18.40;99.90;;;;;;5068992;28;20468;-87
2022/09/06 08:42:06;;;;;;;0.10;0.10;;;18.50;99.90;;;;;;5065906;28;20527;-87
2022/09/06 08:44:34;;;;;;;0.10;0.10;;;18.70;99.90;;;;;;5050252;28;20578;-89
2022/09/06 08:47:06;;;;;;;0.10;0.10;;;18.90;99.90;;;;;;5063945;28;20957;-86
2022/09/06 08:49:36;;;;;;;0.10;0.07;;;19.00;99.90;;;;;;5064959;28;20943;-87
2022/09/06 08:52:37;;;;;;;0.10;0.10;;;18.80;99.90;;;;;;5066292;28;20443;-90
2022/09/06 08:55:46;;;;;;;0.10;0.10;;;18.90;99.90;;;;;;5059919;28;20570;-85
2022/09/06 08:58:31;;;;;;;0.10;0.10;;;18.90;99.90;;;;;;5064055;28;20436;-87
2022/09/06 09:01:24;;;;;;;0.10;0.10;;;19.10;99.90;;;;;;5071583;28;20490;-89
2022/09/06 09:03:54;;;;;;;0.10;0.10;;;19.10;99.90;;;;;;5068608;28;21012;-88
2022/09/06 09:06:22;;;;;;;0.10;0.00;;;19.20;99.90;;;;;;5068297;28;20444;-89
2022/09/06 09:09:04;;;;;;;0.10;0.10;;;19.40;99.90;;;;;;5070574;28;20440;-88
2022/09/06 09:11:32;;;;;;;0.10;0.00;;;19.50;99.90;;;;;;5069755;28;20444;-85
2022/09/06 09:14:24;;;;;;;0.10;0.10;;;19.70;99.90;;;;;;5071436;28;20467;-89
2022/09/06 09:16:52;;;;;;;0.10;0.10;;;20.10;99.90;;;;;;5070755;28;21137;-87
2022/09/06 09:19:17;;;;;;;0.10;0.10;;;20.60;99.90;;;;;;5071950;28;20450;-87
2022/09/06 09:21:43;;;;;;;0.10;0.00;;;21.10;99.90;;;;;;5067229;28;20948;-87
2022/09/06 09:24:11;;;;;;;0.10;0.00;;;21.20;99.90;;;;;;5065094;28;20187;-89
2022/09/06 09:26:57;;;;;;;0.10;0.00;;;21.60;99.90;;;;;;5066257;28;20444;-90
2022/09/06 09:29:22;;;;;;;0.10;0.00;;;21.80;99.90;;;;;;5058644;28;20476;-86
2022/09/06 09:31:51;;;;;;;0.10;0.00;;;21.10;99.90;;;;;;5061993;28;20887;-86
2022/09/06 09:34:34;;;;;;;0.10;0.00;;;21.00;99.90;;;;;;5070633;28;20563;-87
2022/09/06 09:37:10;;;;;;;0.10;0.00;;;20.80;99.90;;;;;;5070175;28;20443;-89
2022/09/06 09:39:38;;;;;;;0.10;0.00;;;20.60;99.90;;;;;;5068015;28;20474;-85
2022/09/06 09:42:03;;;;;;;0.10;0.00;;;20.50;99.90;;;;;;5071849;28;20455;-84
2022/09/06 09:44:29;;;;;;;0.10;0.07;;;20.60;99.90;;;;;;5073214;28;20426;-88
2022/09/06 09:46:54;;;;;;;0.10;0.00;;;20.90;99.90;;;;;;5071618;28;20248;-89
2022/09/06 09:49:24;;;;;;;0.10;0.00;;;20.70;99.90;;;;;;5070649;28;20273;-88
2022/09/06 09:52:10;;;;;;;0.10;0.00;;;20.80;99.90;;;;;;5069279;28;20222;-89
2022/09/06 09:54:39;;;;;;;0.10;0.00;;;21.10;99.90;;;;;;5063957;28;20494;-86
2022/09/06 09:57:16;;;;;;;0.10;0.10;;;20.90;99.90;;;;;;5058925;28;20439;-86
2022/09/06 09:59:44;;;;;;;0.10;0.10;;;20.60;99.90;;;;;;5072085;28;20439;-84
2022/09/06 10:02:40;;;;;;;0.10;0.00;;;20.50;99.90;;;;;;5070230;28;20436;-86
2022/09/06 10:05:10;;;;;;;0.10;0.00;;;20.50;99.90;;;;;;5072583;28;20485;-89
2022/09/06 10:07:42;;;;;;;0.10;0.00;;;20.60;99.90;;;;;;5071238;28;20485;-84
2022/09/06 10:10:19;;;;;;;0.10;0.00;;;20.50;99.90;;;;;;5071189;28;20467;-91
2022/09/06 10:12:44;;;;;;;0.10;0.10;;;20.60;99.90;;;;;;5066789;28;20983;-88
2022/09/06 10:15:30;;;;;;;0.10;0.00;;;20.40;99.90;;;;;;5069845;28;20483;-87
2022/09/06 10:17:56;;;;;;;0.10;0.00;;;20.40;99.90;;;;;;5053498;28;20178;-88
2022/09/06 10:20:32;;;;;;;0.10;0.00;;;20.50;99.90;;;;;;5071401;28;20458;-87
2022/09/06 10:23:20;;;;;;;0.10;0.00;;;20.40;99.90;;;;;;5074600;28;20193;-87
2022/09/06 10:25:50;;;;;;;0.10;0.00;;;20.60;99.90;;;;;;5067974;28;20559;-88
2022/09/06 10:28:42;;;;;;;0.10;0.00;;;20.60;99.90;;;;;;5066871;28;20436;-87
2022/09/06 10:31:30;;;;;;;0.10;0.00;;;20.60;99.90;;;;;;5068382;28;20448;-89
2022/09/06 10:34:22;;;;;;;0.10;0.00;;;20.70;99.90;;;;;;5070182;28;20521;-90
2022/09/06 10:37:20;;;;;;;0.10;0.00;;;20.50;99.90;;;;;;5070286;28;20475;-86
2022/09/06 10:40:05;;;;;;;0.10;0.10;;;20.30;99.90;;;;;;5064292;28;20432;-86
2022/09/06 10:42:44;;;;;;;0.10;0.00;;;20.50;99.90;;;;;;5085427;28;20444;-89
2022/09/06 10:45:22;;;;;;;0.10;0.00;;;20.40;99.90;;;;;;5058026;28;20517;-86
2022/09/06 10:48:07;;;;;;;0.10;0.00;;;20.40;99.90;;;;;;5069815;28;20431;-87
2022/09/06 10:50:33;;;;;;;0.10;0.00;;;20.40;99.90;;;;;;5072110;28;20809;-89
2022/09/06 10:53:10;;;;;;;0.10;0.00;;;20.60;99.90;;;;;;5069153;28;20484;-84
2022/09/06 10:55:38;;;;;;;0.10;0.00;;;20.30;99.90;;;;;;5068405;28;20483;-85
2022/09/06 10:58:05;;;;;;;0.10;0.10;;;20.50;99.90;;;;;;5069835;28;21010;-84
2022/09/06 11:00:41;;;;;;;0.10;0.00;;;20.70;99.90;;;;;;5067990;28;20456;-87
2022/09/06 11:03:29;;;;;;;0.10;0.00;;;21.00;99.90;;;;;;5069841;28;20505;-86
2022/09/06 11:06:05;;;;;;;0.10;0.10;;;21.20;99.90;;;;;;5070241;28;20440;-88
2022/09/06 11:08:42;;;;;;;0.10;0.00;;;21.30;99.90;;;;;;5067493;28;20481;-88
2022/09/06 11:11:15;;;;;;;0.10;0.00;;;21.50;99.90;;;;;;5070572;28;21180;-88
2022/09/06 11:13:40;;;;;;;0.10;0.00;;;21.40;99.90;;;;;;5071491;28;20435;-90
2022/09/06 11:16:21;;;;;;;0.10;0.00;;;21.30;99.90;;;;;;5069827;28;20420;-88
2022/09/06 11:19:00;;;;;;;0.10;0.00;;;21.30;99.90;;;;;;5071478;28;20184;-88
2022/09/06 11:22:00;;;;;;;0.10;0.00;;;21.20;99.90;;;;;;5070263;28;20494;-85
2022/09/06 11:24:42;;;;;;;0.10;0.00;;;21.10;99.90;;;;;;5066913;28;20450;-87
2022/09/06 11:27:20;;;;;;;0.10;0.00;;;21.40;99.90;;;;;;5069500;28;20993;-85
2022/09/06 11:29:55;;;;;;;0.10;0.00;;;21.40;99.90;;;;;;5058793;28;20461;-86
2022/09/06 11:32:31;;;;;;;0.10;0.00;;;21.60;99.90;;;;;;5062942;28;20455;-91
2022/09/06 11:35:00;;;;;;;0.10;0.00;;;21.40;99.90;;;;;;5065912;28;20545;-88
2022/09/06 11:37:31;;;;;;;0.10;0.00;;;21.70;99.90;;;;;;5067825;28;21065;-90
2022/09/06 11:40:23;;;;;;;0.10;0.10;;;21.90;99.90;;;;;;5065624;28;20440;-86
2022/09/06 11:42:48;;;;;;;0.10;0.00;;;21.90;99.90;;;;;;5056313;28;20444;-85
2022/09/06 11:45:20;;;;;;;0.10;0.00;;;22.20;99.90;;;;;;5065074;28;20470;-87
2022/09/06 11:47:52;;;;;;;0.10;0.00;;;22.50;99.90;;;;;;5068075;28;20178;-88
2022/09/06 11:50:26;;;;;;;0.10;0.00;;;22.90;99.90;;;;;;5068340;28;20939;-88
2022/09/06 11:53:16;;;;;;;0.10;0.00;;;22.70;99.90;;;;;;5066594;28;20939;-88
2022/09/06 11:55:50;;;;;;;0.10;0.00;;;22.70;99.90;;;;;;5065589;28;20477;-88
2022/09/06 11:58:16;;;;;;;0.10;0.00;;;22.30;99.90;;;;;;5069291;28;20435;-84
2022/09/06 12:00:43;;;;;;;0.10;0.00;;;21.90;99.90;;;;;;5065126;28;20451;-87
2022/09/06 12:03:30;;;;;;;0.10;0.00;;;22.10;99.90;;;;;;5068171;28;20216;-83
2022/09/06 12:06:25;;;;;;;0.10;0.00;;;22.50;99.90;;;;;;5068736;28;21022;-84
2022/09/06 12:08:53;;;;;;;0.10;0.00;;;23.20;99.90;;;;;;5065316;28;20515;-84
2022/09/06 12:11:24;;;;;;;0.10;0.00;;;23.40;99.90;;;;;;5069495;28;20459;-86
2022/09/06 12:14:02;;;;;;;0.10;0.00;;;22.80;99.90;;;;;;5070256;28;20534;-88
2022/09/06 12:16:56;;;;;;;0.10;0.00;;;23.20;99.90;;;;;;5068527;28;20523;-88
2022/09/06 12:19:43;;;;;;;0.10;0.00;;;23.80;99.90;;;;;;5070950;28;20448;-86
2022/09/06 12:22:31;;;;;;;0.10;0.00;;;24.00;99.90;;;;;;5055526;28;20863;-88
2022/09/06 12:25:21;;;;;;;0.10;0.00;;;23.30;99.90;;;;;;5066718;28;20494;-88
2022/09/06 12:27:56;;;;;;;0.10;0.00;;;22.90;99.90;;;;;;5056979;28;20456;-87
2022/09/06 12:30:37;;;;;;;0.10;0.00;;;22.60;99.90;;;;;;5071092;28;20475;-84
2022/09/06 12:33:25;;;;;;;0.10;0.00;;;22.40;99.90;;;;;;5066796;28;20433;-86
2022/09/06 12:35:51;;;;;;;0.10;0.00;;;22.20;99.90;;;;;;5069796;28;20487;-86
2022/09/06 12:38:22;;;;;;;0.10;0.00;;;22.30;99.90;;;;;;5069164;28;20431;-88
2022/09/06 12:40:51;;;;;;;0.10;0.00;;;22.10;99.90;;;;;;5063813;28;20521;-85
2022/09/06 12:43:19;;;;;;;0.10;0.00;;;22.00;99.90;;;;;;5062616;28;20432;-85
2022/09/06 12:45:49;;;;;;;0.10;0.00;;;21.80;99.90;;;;;;5067476;28;20436;-86
2022/09/06 12:48:34;;;;;;;0.10;0.00;;;21.80;99.90;;;;;;5070030;28;20493;-86
2022/09/06 12:51:02;;;;;;;0.10;0.00;;;22.20;99.90;;;;;;5068997;28;20436;-83
2022/09/06 12:53:30;;;;;;;0.10;0.00;;;22.30;99.90;;;;;;5067923;28;20443;-90
2022/09/06 12:56:07;;;;;;;0.10;0.00;;;23.00;99.90;;;;;;5069605;28;21057;-87
2022/09/06 12:58:34;;;;;;;0.10;0.00;;;24.00;99.90;;;;;;5063661;28;20489;-86
2022/09/06 13:01:08;;;;;;;0.10;0.00;;;24.10;99.90;;;;;;5064873;28;20439;-87
2022/09/06 13:03:44;;;;;;;0.10;0.00;;;23.70;99.90;;;;;;5068472;28;20440;-87
2022/09/06 13:06:17;;;;;;;0.10;0.00;;;23.60;99.90;;;;;;5062213;28;20441;-86